Orange Sun — A8HY8 — position and weather

sailwx.info

Track history (hours):
 
Tides and Currents Weather Stations Pressure Air Temp Water Temp Dewpoint Dewpoint Depression Visibility Wind Speed Wind Dir Waves Ship Positions

Orange Sun

Last reported at 2018-Feb-22 19:00 UTC. Time now 2018-Feb-22 20:45 UTC.
Position N 33°54' W 013°54'.

Type: Other ship. MMSI: 244700804.

Wind from 340 at 11 knots

Barometer 1009.0 mb
Air temperature 17.0 ° C
Visibility: greater than 10.8 NM
Dewpoint 17.0 ° C

Date/timePositionNaut miles runAvg speedWind from/ knotsBaromVisibWave heightAir tempDewpointWater temp
2018-Feb-22 19:00N 33°54' W 013°54'34616.1 340 / 111009.010.8 17.017.0
2018-Feb-21 21:31N 39°28' W 011°59'015.2
2018-Feb-21 21:30N 39°28' W 011°59'815.5
2018-Feb-21 21:01N 39°35' W 011°56'56615.2
2018-Feb-20 07:51N 48°09' W 006°28'4414.2
2018-Feb-20 04:46N 48°46' W 005°53'613.7
2018-Feb-20 04:22N 48°51' W 005°49'1213.5
2018-Feb-20 03:28N 48°59' W 005°35'1414.8
2018-Feb-20 02:29N 49°06' W 005°15'815.5
2018-Feb-20 02:00N 49°10' W 005°05'815.9
2018-Feb-20 01:30N 49°14' W 004°55'816.3
2018-Feb-20 01:00N 49°18' W 004°44'1116.2
2018-Feb-20 00:21N 49°23' W 004°30'915.9
2018-Feb-19 23:46N 49°28' W 004°18'815.4
2018-Feb-19 23:13N 49°31' W 004°06'415.1
2018-Feb-19 22:57N 49°33' W 004°00'714.8
2018-Feb-19 22:29N 49°37' W 003°51'714.3
2018-Feb-19 21:59N 49°40' W 003°41'813.7
2018-Feb-19 21:25N 49°44' W 003°31'513.3
2018-Feb-19 21:00N 49°47' W 003°24'713.2
2018-Feb-19 20:30N 49°50' W 003°15'713.2
2018-Feb-19 20:00N 49°53' W 003°06'713.6
2018-Feb-19 19:30N 49°57' W 002°57'814.0
2018-Feb-19 18:58N 49°59' W 002°46'814.9
2018-Feb-19 18:27N 50°01' W 002°34'715.9
2018-Feb-19 17:59N 50°04' W 002°23'1017.2
2018-Feb-19 17:24N 50°06' W 002°08'718.1
2018-Feb-19 17:00N 50°08' W 001°57'918.7
2018-Feb-19 16:30N 50°11' W 001°44'918.7
2018-Feb-19 16:01N 50°14' W 001°30'918.5
2018-Feb-19 15:31N 50°16' W 001°16'3316.5
2018-Feb-19 13:31N 50°26' W 000°26'015.0
2018-Feb-19 13:30N 50°26' W 000°26'714.8
2018-Feb-19 13:00N 50°28' W 000°15'714.2
2018-Feb-19 12:30N 50°30' W 000°04'713.4
2018-Feb-19 12:01N 50°32' E 000°06'712.9
2018-Feb-19 11:30N 50°34' E 000°16'612.6
2018-Feb-19 11:01N 50°35' E 000°25'612.8
2018-Feb-19 10:31N 50°37' E 000°35'713.4
2018-Feb-19 10:01N 50°40' E 000°45'714.6
2018-Feb-19 09:31N 50°44' E 000°54'815.5
2018-Feb-19 09:01N 50°49' E 001°03'816.6
2018-Feb-19 08:30N 50°55' E 001°13'816.7
2018-Feb-19 08:01N 51°01' E 001°22'816.5
2018-Feb-19 07:31N 51°06' E 001°32'815.7
2018-Feb-19 07:00N 51°11' E 001°41'715.0
2018-Feb-19 06:31N 51°17' E 001°49'714.3
2018-Feb-19 06:01N 51°23' E 001°55'713.8
2018-Feb-19 05:30N 51°29' E 002°02'713.5
2018-Feb-19 05:00N 51°34' E 002°09'713.2
2018-Feb-19 04:30N 51°39' E 002°16'4412.8
2018-Feb-19 01:04N 52°02' E 003°17'315.2
2018-Feb-19 00:51N 52°02' E 003°22'515.3
2018-Feb-19 00:30N 52°03' E 003°31'815.5
2018-Feb-19 00:00N 52°02' E 003°43'714.0
2018-Feb-18 23:31N 52°02' E 003°54'612.6
2018-Feb-18 23:00N 51°59' E 004°04'612.8
2018-Feb-18 22:30N 51°56' E 004°13'510.0
2018-Feb-18 22:00N 51°54' E 004°20'4 7.8
2018-Feb-18 21:30N 51°54' E 004°26'0 0.3
2018-Feb-18 20:58N 51°54' E 004°26'0 0.0
2018-Feb-18 20:28N 51°54' E 004°26'0 0.0
2018-Feb-18 19:55N 51°54' E 004°26'0 0.0
2018-Feb-18 19:28N 51°54' E 004°26'0 0.0
2018-Feb-18 18:58N 51°54' E 004°26'0 0.0
2018-Feb-18 18:28N 51°54' E 004°26'0 0.0
2018-Feb-18 17:58N 51°54' E 004°26'0 0.0
2018-Feb-18 17:28N 51°54' E 004°26'0 0.0
2018-Feb-18 16:58N 51°54' E 004°26'0 0.0
2018-Feb-18 16:28N 51°54' E 004°26'0 0.0
2018-Feb-18 15:58N 51°54' E 004°26'0 0.0
2018-Feb-18 15:28N 51°54' E 004°26'0 0.0
2018-Feb-18 14:58N 51°54' E 004°26'0 0.0
2018-Feb-18 14:28N 51°54' E 004°26'0 0.0
2018-Feb-18 13:55N 51°54' E 004°26'0 0.0
2018-Feb-18 13:28N 51°54' E 004°26'0 0.0
2018-Feb-18 12:58N 51°54' E 004°26'0 0.0
2018-Feb-18 12:28N 51°54' E 004°26'0 0.0
2018-Feb-18 11:58N 51°54' E 004°26'0 0.0
2018-Feb-18 11:28N 51°54' E 004°26'0 0.0
2018-Feb-18 10:58N 51°54' E 004°26'0 0.0
2018-Feb-18 10:28N 51°54' E 004°26'0 0.0
2018-Feb-18 09:58N 51°54' E 004°26'0 0.0
2018-Feb-18 09:28N 51°54' E 004°26'0 0.0
2018-Feb-18 08:58N 51°54' E 004°26'0 0.0
2018-Feb-18 08:28N 51°54' E 004°26'0 0.0
2018-Feb-18 07:58N 51°54' E 004°26'0 0.0
2018-Feb-18 07:28N 51°54' E 004°26'0 0.0
2018-Feb-18 06:58N 51°54' E 004°26'0 0.0
2018-Feb-18 06:28N 51°54' E 004°26'0 0.0
2018-Feb-18 05:58N 51°54' E 004°26'0 0.0
2018-Feb-18 05:25N 51°54' E 004°26'0 0.0
2018-Feb-18 04:58N 51°54' E 004°26'0 0.0
2018-Feb-18 04:28N 51°54' E 004°26'0 0.0
2018-Feb-18 03:58N 51°54' E 004°26'0 0.0
2018-Feb-18 03:28N 51°54' E 004°26'0 0.0
2018-Feb-18 02:58N 51°54' E 004°26'0 0.0
2018-Feb-18 02:28N 51°54' E 004°26'0 0.0
2018-Feb-18 01:58N 51°54' E 004°26'0 0.0
2018-Feb-18 01:28N 51°54' E 004°26'0 0.0
2018-Feb-18 00:58N 51°54' E 004°26'0 0.0
2018-Feb-18 00:25N 51°54' E 004°26'0 0.0
2018-Feb-17 23:58N 51°54' E 004°26'0 0.0
2018-Feb-17 23:28N 51°54' E 004°26'0 0.0
2018-Feb-17 22:58N 51°54' E 004°26'0 0.0
2018-Feb-17 22:28N 51°54' E 004°26'0 0.0
2018-Feb-17 21:58N 51°54' E 004°26'0 0.0
2018-Feb-17 21:28N 51°54' E 004°26'0 0.0
2018-Feb-17 20:58N 51°54' E 004°26'0 0.0
2018-Feb-17 20:28N 51°54' E 004°26'0 0.0
2018-Feb-17 19:58N 51°54' E 004°26'0 0.0
2018-Feb-17 19:28N 51°54' E 004°26'0 0.0
2018-Feb-17 18:58N 51°54' E 004°26'0 0.0
2018-Feb-17 18:28N 51°54' E 004°26'0 0.0
2018-Feb-17 17:58N 51°54' E 004°26'0 0.0
2018-Feb-17 17:28N 51°54' E 004°26'0 0.0
2018-Feb-17 16:58N 51°54' E 004°26'0 0.0
2018-Feb-17 16:28N 51°54' E 004°26'0 0.0
2018-Feb-17 15:58N 51°54' E 004°26'0 0.0
2018-Feb-17 15:28N 51°54' E 004°26'0 0.0
2018-Feb-17 14:58N 51°54' E 004°26'0 0.0
2018-Feb-17 14:28N 51°54' E 004°26'0 0.0
2018-Feb-17 13:58N 51°54' E 004°26'0 0.0
2018-Feb-17 13:28N 51°54' E 004°26'0 0.0
2018-Feb-17 12:58N 51°54' E 004°26'0 0.0
2018-Feb-17 12:28N 51°54' E 004°26'0 0.0
2018-Feb-17 11:58N 51°54' E 004°26'0 0.0
2018-Feb-17 11:28N 51°54' E 004°26'0 0.0
2018-Feb-17 10:58N 51°54' E 004°26'0 0.0
2018-Feb-17 10:28N 51°54' E 004°26'0 0.0
2018-Feb-17 09:58N 51°54' E 004°26'0 0.0
2018-Feb-17 09:28N 51°54' E 004°26'0 0.0
2018-Feb-17 08:58N 51°54' E 004°26'0 0.0
2018-Feb-17 08:28N 51°54' E 004°26'0 0.0
2018-Feb-17 07:58N 51°54' E 004°26'0 0.0
2018-Feb-17 07:28N 51°54' E 004°26'0 0.0
2018-Feb-17 06:58N 51°54' E 004°26'0 0.0
2018-Feb-17 06:28N 51°54' E 004°26'0 0.0
2018-Feb-17 05:58N 51°54' E 004°26'0 0.0
2018-Feb-17 05:28N 51°54' E 004°26'0 0.0
2018-Feb-17 04:58N 51°54' E 004°26'0 0.0
2018-Feb-17 04:28N 51°54' E 004°26'0 0.0
2018-Feb-17 03:58N 51°54' E 004°26'0 0.0
2018-Feb-17 03:28N 51°54' E 004°26'0 0.0
2018-Feb-17 02:58N 51°54' E 004°26'0 0.0
2018-Feb-17 02:28N 51°54' E 004°26'0 0.0
2018-Feb-17 01:58N 51°54' E 004°26'0 0.0
2018-Feb-17 01:28N 51°54' E 004°26'0 0.0
2018-Feb-17 00:58N 51°54' E 004°26'0 0.0
2018-Feb-17 00:28N 51°54' E 004°26'0 0.0
2018-Feb-16 23:58N 51°54' E 004°26'0 0.0
2018-Feb-16 23:28N 51°54' E 004°26'0 0.0
2018-Feb-16 22:58N 51°54' E 004°26'0 0.0
2018-Feb-16 22:28N 51°54' E 004°26'0 0.0
2018-Feb-16 21:58N 51°54' E 004°26'0 0.0
2018-Feb-16 21:28N 51°54' E 004°26'0 0.0
2018-Feb-16 20:58N 51°54' E 004°26'0 0.0
2018-Feb-16 20:25N 51°54' E 004°26'0 0.0
2018-Feb-16 19:58N 51°54' E 004°26'0 0.0
2018-Feb-16 19:28N 51°54' E 004°26'0 0.0
2018-Feb-16 18:58N 51°54' E 004°26'0 0.0
2018-Feb-16 18:28N 51°54' E 004°26'0 0.0
2018-Feb-16 17:58N 51°54' E 004°26'0 0.0
2018-Feb-16 17:28N 51°54' E 004°26'0 0.0
2018-Feb-16 16:58N 51°54' E 004°26'0 0.0
2018-Feb-16 16:28N 51°54' E 004°26'0 0.0
2018-Feb-16 15:58N 51°54' E 004°26'0 0.0
2018-Feb-16 15:28N 51°54' E 004°26'0 0.0
2018-Feb-16 14:55N 51°54' E 004°26'0 0.0
2018-Feb-16 14:28N 51°54' E 004°26'0 0.0
2018-Feb-16 13:58N 51°54' E 004°26'0 0.0
2018-Feb-16 13:28N 51°54' E 004°26'0 0.0
2018-Feb-16 12:55N 51°54' E 004°26'0 0.0
2018-Feb-16 12:28N 51°54' E 004°26'0 0.0
2018-Feb-16 11:58N 51°54' E 004°26'0 0.0
2018-Feb-16 11:28N 51°54' E 004°26'0 0.0
2018-Feb-16 10:58N 51°54' E 004°26'0 0.0
2018-Feb-16 10:28N 51°54' E 004°26'0 0.0
2018-Feb-16 09:58N 51°54' E 004°26'0 0.0
2018-Feb-16 09:28N 51°54' E 004°26'0 0.0
2018-Feb-16 08:55N 51°54' E 004°26'0 0.0
2018-Feb-16 08:25N 51°54' E 004°26'0 0.0
2018-Feb-16 07:58N 51°54' E 004°26'0 0.0
2018-Feb-16 07:28N 51°54' E 004°26'0 0.0
2018-Feb-16 06:58N 51°54' E 004°26'0 0.0
2018-Feb-16 06:28N 51°54' E 004°26'0 0.0
2018-Feb-16 05:58N 51°54' E 004°26'0 0.0
2018-Feb-16 05:28N 51°54' E 004°26'0 0.0
2018-Feb-16 04:55N 51°54' E 004°26'0 0.0
2018-Feb-16 04:28N 51°54' E 004°26'0 0.0
2018-Feb-16 03:58N 51°54' E 004°26'0 0.0
2018-Feb-16 03:28N 51°54' E 004°26'0 0.0
2018-Feb-16 02:58N 51°54' E 004°26'0 0.0
2018-Feb-16 02:28N 51°54' E 004°26'0 0.0
2018-Feb-16 01:58N 51°54' E 004°26'0 0.0
2018-Feb-16 01:28N 51°54' E 004°26'0 0.0
2018-Feb-16 00:58N 51°54' E 004°26'0 0.0
2018-Feb-16 00:28N 51°54' E 004°26'0 0.0
2018-Feb-15 23:58N 51°54' E 004°26'0 0.0
2018-Feb-15 23:28N 51°54' E 004°26'0 0.0
2018-Feb-15 22:58N 51°54' E 004°26'0 0.0
2018-Feb-15 22:28N 51°54' E 004°26'0 0.0
2018-Feb-15 21:58N 51°54' E 004°26'0 0.0
2018-Feb-15 21:28N 51°54' E 004°26'0 0.0
2018-Feb-15 20:58N 51°54' E 004°26'0 0.0
2018-Feb-15 20:28N 51°54' E 004°26'0 0.0
2018-Feb-15 19:58N 51°54' E 004°26'0 0.0
2018-Feb-15 19:28N 51°54' E 004°26'0 0.0
2018-Feb-15 18:58N 51°54' E 004°26'0 0.0
2018-Feb-15 18:28N 51°54' E 004°26'0 0.0
2018-Feb-15 17:58N 51°54' E 004°26'0 0.0
2018-Feb-15 17:28N 51°54' E 004°26'0 0.0
2018-Feb-15 16:58N 51°54' E 004°26'0 0.0
2018-Feb-15 16:28N 51°54' E 004°26'0 0.0
2018-Feb-15 15:58N 51°54' E 004°26'0 0.0
2018-Feb-15 15:28N 51°54' E 004°26'0 0.0
2018-Feb-15 14:58N 51°54' E 004°26'0 0.0
2018-Feb-15 14:28N 51°54' E 004°26'0 0.0
2018-Feb-15 13:52N 51°54' E 004°26'0 0.0
2018-Feb-15 13:28N 51°54' E 004°26'0 0.0
2018-Feb-15 12:58N 51°54' E 004°26'0 0.0
2018-Feb-15 12:30N 51°54' E 004°26'2 3.2
2018-Feb-15 12:00N 51°54' E 004°24'4 8.8
2018-Feb-15 11:30N 51°54' E 004°17'4 8.7
2018-Feb-15 11:00N 51°57' E 004°11'5 9.6
2018-Feb-15 10:30N 51°59' E 004°04'4 7.3
2018-Feb-15 10:00N 51°60' E 003°58'5 9.2
2018-Feb-15 09:30N 51°60' E 003°51'3 6.4
2018-Feb-15 09:00N 51°59' E 003°46'4 7.8
2018-Feb-15 08:30N 51°58' E 003°40'3 5.9
2018-Feb-15 07:59N 51°55' E 003°37'0 0.1
2018-Feb-15 05:34N 51°55' E 003°38'0 0.0
2018-Feb-15 05:04N 51°55' E 003°38'0 0.0
2018-Feb-15 04:49N 51°55' E 003°38'0 0.0
2018-Feb-15 03:40N 51°55' E 003°38'0 0.0
2018-Feb-15 02:46N 51°55' E 003°38'0 0.0
2018-Feb-15 02:19N 51°55' E 003°38'0 0.0
2018-Feb-15 01:58N 51°55' E 003°38'0 0.0
2018-Feb-15 01:10N 51°55' E 003°38'0 0.0
2018-Feb-14 13:48N 51°55' E 003°37'0 1.6
2018-Feb-14 13:30N 51°55' E 003°38'0 0.8
2018-Feb-14 13:00N 51°56' E 003°38'912.7
2018-Feb-14 12:18N 51°56' E 003°23'2518.1
2018-Feb-14 10:54N 51°48' E 002°45'817.2
2018-Feb-14 10:28N 51°44' E 002°34'817.7
2018-Feb-14 09:59N 51°38' E 002°25'817.5
2018-Feb-14 09:30N 51°31' E 002°17'817.1
2018-Feb-14 09:00N 51°24' E 002°09'816.6
2018-Feb-14 08:30N 51°16' E 002°05'816.1
2018-Feb-14 08:00N 51°11' E 001°56'816.1
2018-Feb-14 07:30N 51°06' E 001°45'815.3
2018-Feb-14 07:00N 51°01' E 001°36'815.7
2018-Feb-14 06:30N 50°56' E 001°27'815.9
2018-Feb-14 06:01N 50°48' E 001°22'1515.5
2018-Feb-14 05:02N 50°36' E 001°09'1516.4
2018-Feb-14 04:07N 50°29' E 000°48'216.9
2018-Feb-14 04:00N 50°28' E 000°45'1416.6
2018-Feb-14 03:08N 50°25' E 000°23'616.3
2018-Feb-14 02:47N 50°23' E 000°14'516.3
2018-Feb-14 02:29N 50°22' E 000°07'816.3
2018-Feb-14 02:00N 50°20' W 000°05'3315.9
2018-Feb-13 23:54N 50°12' W 000°56'716.1
2018-Feb-13 23:30N 50°10' W 001°06'816.5
2018-Feb-13 23:00N 50°08' W 001°18'917.0
2018-Feb-13 22:30N 50°05' W 001°30'917.4
2018-Feb-13 22:01N 50°02' W 001°43'918.0
2018-Feb-13 21:30N 49°59' W 001°56'918.4
2018-Feb-13 21:00N 49°57' W 002°10'918.7
2018-Feb-13 20:31N 49°54' W 002°24'918.5
2018-Feb-13 20:00N 49°52' W 002°38'1018.5
2018-Feb-13 19:29N 49°49' W 002°52'1817.9
2018-Feb-13 18:28N 49°40' W 003°17'7816.8
2018-Feb-13 13:51N 48°60' W 004°59'715.7
2018-Feb-13 13:23N 48°56' W 005°08'615.5
2018-Feb-13 12:59N 48°53' W 005°16'1015.3
2018-Feb-13 12:21N 48°48' W 005°29'814.4
2018-Feb-13 11:49N 48°44' W 005°39'  
Track history (hours):
 
Tides and Currents Weather Stations Pressure Air Temp Water Temp Dewpoint Dewpoint Depression Visibility Wind Speed Wind Dir Waves Ship Positions

Orange Sun

Last reported at 2018-Feb-22 19:00 UTC. Time now 2018-Feb-22 20:45 UTC.
Position N 33°54' W 013°54'.

Type: Other ship. MMSI: 244700804.

Wind from 340 at 11 knots

Barometer 1009.0 mb
Air temperature 17.0 ° C
Visibility: greater than 10.8 NM
Dewpoint 17.0 ° C

Date/timePositionNaut miles runAvg speedWind from/ knotsBaromVisibWave heightAir tempDewpointWater temp
2018-Feb-22 19:00N 33°54' W 013°54'34616.1 340 / 111009.010.8 17.017.0
2018-Feb-21 21:31N 39°28' W 011°59'015.2
2018-Feb-21 21:30N 39°28' W 011°59'815.5
2018-Feb-21 21:01N 39°35' W 011°56'56615.2
2018-Feb-20 07:51N 48°09' W 006°28'4414.2
2018-Feb-20 04:46N 48°46' W 005°53'613.7
2018-Feb-20 04:22N 48°51' W 005°49'1213.5
2018-Feb-20 03:28N 48°59' W 005°35'1414.8
2018-Feb-20 02:29N 49°06' W 005°15'815.5
2018-Feb-20 02:00N 49°10' W 005°05'815.9
2018-Feb-20 01:30N 49°14' W 004°55'816.3
2018-Feb-20 01:00N 49°18' W 004°44'1116.2
2018-Feb-20 00:21N 49°23' W 004°30'915.9
2018-Feb-19 23:46N 49°28' W 004°18'815.4
2018-Feb-19 23:13N 49°31' W 004°06'415.1
2018-Feb-19 22:57N 49°33' W 004°00'714.8
2018-Feb-19 22:29N 49°37' W 003°51'714.3
2018-Feb-19 21:59N 49°40' W 003°41'813.7
2018-Feb-19 21:25N 49°44' W 003°31'513.3
2018-Feb-19 21:00N 49°47' W 003°24'713.2
2018-Feb-19 20:30N 49°50' W 003°15'713.2
2018-Feb-19 20:00N 49°53' W 003°06'713.6
2018-Feb-19 19:30N 49°57' W 002°57'814.0
2018-Feb-19 18:58N 49°59' W 002°46'814.9
2018-Feb-19 18:27N 50°01' W 002°34'715.9
2018-Feb-19 17:59N 50°04' W 002°23'1017.2
2018-Feb-19 17:24N 50°06' W 002°08'718.1
2018-Feb-19 17:00N 50°08' W 001°57'918.7
2018-Feb-19 16:30N 50°11' W 001°44'918.7
2018-Feb-19 16:01N 50°14' W 001°30'918.5
2018-Feb-19 15:31N 50°16' W 001°16'3316.5
2018-Feb-19 13:31N 50°26' W 000°26'015.0
2018-Feb-19 13:30N 50°26' W 000°26'714.8
2018-Feb-19 13:00N 50°28' W 000°15'714.2
2018-Feb-19 12:30N 50°30' W 000°04'713.4
2018-Feb-19 12:01N 50°32' E 000°06'712.9
2018-Feb-19 11:30N 50°34' E 000°16'612.6
2018-Feb-19 11:01N 50°35' E 000°25'612.8
2018-Feb-19 10:31N 50°37' E 000°35'713.4
2018-Feb-19 10:01N 50°40' E 000°45'714.6
2018-Feb-19 09:31N 50°44' E 000°54'815.5
2018-Feb-19 09:01N 50°49' E 001°03'816.6
2018-Feb-19 08:30N 50°55' E 001°13'816.7
2018-Feb-19 08:01N 51°01' E 001°22'816.5
2018-Feb-19 07:31N 51°06' E 001°32'815.7
2018-Feb-19 07:00N 51°11' E 001°41'715.0
2018-Feb-19 06:31N 51°17' E 001°49'714.3
2018-Feb-19 06:01N 51°23' E 001°55'713.8
2018-Feb-19 05:30N 51°29' E 002°02'713.5
2018-Feb-19 05:00N 51°34' E 002°09'713.2
2018-Feb-19 04:30N 51°39' E 002°16'4412.8
2018-Feb-19 01:04N 52°02' E 003°17'315.2
2018-Feb-19 00:51N 52°02' E 003°22'515.3
2018-Feb-19 00:30N 52°03' E 003°31'815.5
2018-Feb-19 00:00N 52°02' E 003°43'714.0
2018-Feb-18 23:31N 52°02' E 003°54'612.6
2018-Feb-18 23:00N 51°59' E 004°04'612.8
2018-Feb-18 22:30N 51°56' E 004°13'510.0
2018-Feb-18 22:00N 51°54' E 004°20'4 7.8
2018-Feb-18 21:30N 51°54' E 004°26'0 0.3
2018-Feb-18 20:58N 51°54' E 004°26'0 0.0
2018-Feb-18 20:28N 51°54' E 004°26'0 0.0
2018-Feb-18 19:55N 51°54' E 004°26'0 0.0
2018-Feb-18 19:28N 51°54' E 004°26'0 0.0
2018-Feb-18 18:58N 51°54' E 004°26'0 0.0
2018-Feb-18 18:28N 51°54' E 004°26'0 0.0
2018-Feb-18 17:58N 51°54' E 004°26'0 0.0
2018-Feb-18 17:28N 51°54' E 004°26'0 0.0
2018-Feb-18 16:58N 51°54' E 004°26'0 0.0
2018-Feb-18 16:28N 51°54' E 004°26'0 0.0
2018-Feb-18 15:58N 51°54' E 004°26'0 0.0
2018-Feb-18 15:28N 51°54' E 004°26'0 0.0
2018-Feb-18 14:58N 51°54' E 004°26'0 0.0
2018-Feb-18 14:28N 51°54' E 004°26'0 0.0
2018-Feb-18 13:55N 51°54' E 004°26'0 0.0
2018-Feb-18 13:28N 51°54' E 004°26'0 0.0
2018-Feb-18 12:58N 51°54' E 004°26'0 0.0
2018-Feb-18 12:28N 51°54' E 004°26'0 0.0
2018-Feb-18 11:58N 51°54' E 004°26'0 0.0
2018-Feb-18 11:28N 51°54' E 004°26'0 0.0
2018-Feb-18 10:58N 51°54' E 004°26'0 0.0
2018-Feb-18 10:28N 51°54' E 004°26'0 0.0
2018-Feb-18 09:58N 51°54' E 004°26'0 0.0
2018-Feb-18 09:28N 51°54' E 004°26'0 0.0
2018-Feb-18 08:58N 51°54' E 004°26'0 0.0
2018-Feb-18 08:28N 51°54' E 004°26'0 0.0
2018-Feb-18 07:58N 51°54' E 004°26'0 0.0
2018-Feb-18 07:28N 51°54' E 004°26'0 0.0
2018-Feb-18 06:58N 51°54' E 004°26'0 0.0
2018-Feb-18 06:28N 51°54' E 004°26'0 0.0
2018-Feb-18 05:58N 51°54' E 004°26'0 0.0
2018-Feb-18 05:25N 51°54' E 004°26'0 0.0
2018-Feb-18 04:58N 51°54' E 004°26'0 0.0
2018-Feb-18 04:28N 51°54' E 004°26'0 0.0
2018-Feb-18 03:58N 51°54' E 004°26'0 0.0
2018-Feb-18 03:28N 51°54' E 004°26'0 0.0
2018-Feb-18 02:58N 51°54' E 004°26'0 0.0
2018-Feb-18 02:28N 51°54' E 004°26'0 0.0
2018-Feb-18 01:58N 51°54' E 004°26'0 0.0
2018-Feb-18 01:28N 51°54' E 004°26'0 0.0
2018-Feb-18 00:58N 51°54' E 004°26'0 0.0
2018-Feb-18 00:25N 51°54' E 004°26'0 0.0
2018-Feb-17 23:58N 51°54' E 004°26'0 0.0
2018-Feb-17 23:28N 51°54' E 004°26'0 0.0
2018-Feb-17 22:58N 51°54' E 004°26'0 0.0
2018-Feb-17 22:28N 51°54' E 004°26'0 0.0
2018-Feb-17 21:58N 51°54' E 004°26'0 0.0
2018-Feb-17 21:28N 51°54' E 004°26'0 0.0
2018-Feb-17 20:58N 51°54' E 004°26'0 0.0
2018-Feb-17 20:28N 51°54' E 004°26'0 0.0
2018-Feb-17 19:58N 51°54' E 004°26'0 0.0
2018-Feb-17 19:28N 51°54' E 004°26'0 0.0
2018-Feb-17 18:58N 51°54' E 004°26'0 0.0
2018-Feb-17 18:28N 51°54' E 004°26'0 0.0
2018-Feb-17 17:58N 51°54' E 004°26'0 0.0
2018-Feb-17 17:28N 51°54' E 004°26'0 0.0
2018-Feb-17 16:58N 51°54' E 004°26'0 0.0
2018-Feb-17 16:28N 51°54' E 004°26'0 0.0
2018-Feb-17 15:58N 51°54' E 004°26'0 0.0
2018-Feb-17 15:28N 51°54' E 004°26'0 0.0
2018-Feb-17 14:58N 51°54' E 004°26'0 0.0
2018-Feb-17 14:28N 51°54' E 004°26'0 0.0
2018-Feb-17 13:58N 51°54' E 004°26'0 0.0
2018-Feb-17 13:28N 51°54' E 004°26'0 0.0
2018-Feb-17 12:58N 51°54' E 004°26'0 0.0
2018-Feb-17 12:28N 51°54' E 004°26'0 0.0
2018-Feb-17 11:58N 51°54' E 004°26'0 0.0
2018-Feb-17 11:28N 51°54' E 004°26'0 0.0
2018-Feb-17 10:58N 51°54' E 004°26'0 0.0
2018-Feb-17 10:28N 51°54' E 004°26'0 0.0
2018-Feb-17 09:58N 51°54' E 004°26'0 0.0
2018-Feb-17 09:28N 51°54' E 004°26'0 0.0
2018-Feb-17 08:58N 51°54' E 004°26'0 0.0
2018-Feb-17 08:28N 51°54' E 004°26'0 0.0
2018-Feb-17 07:58N 51°54' E 004°26'0 0.0
2018-Feb-17 07:28N 51°54' E 004°26'0 0.0
2018-Feb-17 06:58N 51°54' E 004°26'0 0.0
2018-Feb-17 06:28N 51°54' E 004°26'0 0.0
2018-Feb-17 05:58N 51°54' E 004°26'0 0.0
2018-Feb-17 05:28N 51°54' E 004°26'0 0.0
2018-Feb-17 04:58N 51°54' E 004°26'0 0.0
2018-Feb-17 04:28N 51°54' E 004°26'0 0.0
2018-Feb-17 03:58N 51°54' E 004°26'0 0.0
2018-Feb-17 03:28N 51°54' E 004°26'0 0.0
2018-Feb-17 02:58N 51°54' E 004°26'0 0.0
2018-Feb-17 02:28N 51°54' E 004°26'0 0.0
2018-Feb-17 01:58N 51°54' E 004°26'0 0.0
2018-Feb-17 01:28N 51°54' E 004°26'0 0.0
2018-Feb-17 00:58N 51°54' E 004°26'0 0.0
2018-Feb-17 00:28N 51°54' E 004°26'0 0.0
2018-Feb-16 23:58N 51°54' E 004°26'0 0.0
2018-Feb-16 23:28N 51°54' E 004°26'0 0.0
2018-Feb-16 22:58N 51°54' E 004°26'0 0.0
2018-Feb-16 22:28N 51°54' E 004°26'0 0.0
2018-Feb-16 21:58N 51°54' E 004°26'0 0.0
2018-Feb-16 21:28N 51°54' E 004°26'0 0.0
2018-Feb-16 20:58N 51°54' E 004°26'0 0.0
2018-Feb-16 20:25N 51°54' E 004°26'0 0.0
2018-Feb-16 19:58N 51°54' E 004°26'0 0.0
2018-Feb-16 19:28N 51°54' E 004°26'0 0.0
2018-Feb-16 18:58N 51°54' E 004°26'0 0.0
2018-Feb-16 18:28N 51°54' E 004°26'0 0.0
2018-Feb-16 17:58N 51°54' E 004°26'0 0.0
2018-Feb-16 17:28N 51°54' E 004°26'0 0.0
2018-Feb-16 16:58N 51°54' E 004°26'0 0.0
2018-Feb-16 16:28N 51°54' E 004°26'0 0.0
2018-Feb-16 15:58N 51°54' E 004°26'0 0.0
2018-Feb-16 15:28N 51°54' E 004°26'0 0.0
2018-Feb-16 14:55N 51°54' E 004°26'0 0.0
2018-Feb-16 14:28N 51°54' E 004°26'0 0.0
2018-Feb-16 13:58N 51°54' E 004°26'0 0.0
2018-Feb-16 13:28N 51°54' E 004°26'0 0.0
2018-Feb-16 12:55N 51°54' E 004°26'0 0.0
2018-Feb-16 12:28N 51°54' E 004°26'0 0.0
2018-Feb-16 11:58N 51°54' E 004°26'0 0.0
2018-Feb-16 11:28N 51°54' E 004°26'0 0.0
2018-Feb-16 10:58N 51°54' E 004°26'0 0.0
2018-Feb-16 10:28N 51°54' E 004°26'0 0.0
2018-Feb-16 09:58N 51°54' E 004°26'0 0.0
2018-Feb-16 09:28N 51°54' E 004°26'0 0.0
2018-Feb-16 08:55N 51°54' E 004°26'0 0.0
2018-Feb-16 08:25N 51°54' E 004°26'0 0.0
2018-Feb-16 07:58N 51°54' E 004°26'0 0.0
2018-Feb-16 07:28N 51°54' E 004°26'0 0.0
2018-Feb-16 06:58N 51°54' E 004°26'0 0.0
2018-Feb-16 06:28N 51°54' E 004°26'0 0.0
2018-Feb-16 05:58N 51°54' E 004°26'0 0.0
2018-Feb-16 05:28N 51°54' E 004°26'0 0.0
2018-Feb-16 04:55N 51°54' E 004°26'0 0.0
2018-Feb-16 04:28N 51°54' E 004°26'0 0.0
2018-Feb-16 03:58N 51°54' E 004°26'0 0.0
2018-Feb-16 03:28N 51°54' E 004°26'0 0.0
2018-Feb-16 02:58N 51°54' E 004°26'0 0.0
2018-Feb-16 02:28N 51°54' E 004°26'0 0.0
2018-Feb-16 01:58N 51°54' E 004°26'0 0.0
2018-Feb-16 01:28N 51°54' E 004°26'0 0.0
2018-Feb-16 00:58N 51°54' E 004°26'0 0.0
2018-Feb-16 00:28N 51°54' E 004°26'0 0.0
2018-Feb-15 23:58N 51°54' E 004°26'0 0.0
2018-Feb-15 23:28N 51°54' E 004°26'0 0.0
2018-Feb-15 22:58N 51°54' E 004°26'0 0.0
2018-Feb-15 22:28N 51°54' E 004°26'0 0.0
2018-Feb-15 21:58N 51°54' E 004°26'0 0.0
2018-Feb-15 21:28N 51°54' E 004°26'0 0.0
2018-Feb-15 20:58N 51°54' E 004°26'0 0.0
2018-Feb-15 20:28N 51°54' E 004°26'0 0.0
2018-Feb-15 19:58N 51°54' E 004°26'0 0.0
2018-Feb-15 19:28N 51°54' E 004°26'0 0.0
2018-Feb-15 18:58N 51°54' E 004°26'0 0.0
2018-Feb-15 18:28N 51°54' E 004°26'0 0.0
2018-Feb-15 17:58N 51°54' E 004°26'0 0.0
2018-Feb-15 17:28N 51°54' E 004°26'0 0.0
2018-Feb-15 16:58N 51°54' E 004°26'0 0.0
2018-Feb-15 16:28N 51°54' E 004°26'0 0.0
2018-Feb-15 15:58N 51°54' E 004°26'0 0.0
2018-Feb-15 15:28N 51°54' E 004°26'0 0.0
2018-Feb-15 14:58N 51°54' E 004°26'0 0.0
2018-Feb-15 14:28N 51°54' E 004°26'0 0.0
2018-Feb-15 13:52N 51°54' E 004°26'0 0.0
2018-Feb-15 13:28N 51°54' E 004°26'0 0.0
2018-Feb-15 12:58N 51°54' E 004°26'0 0.0
2018-Feb-15 12:30N 51°54' E 004°26'2 3.2
2018-Feb-15 12:00N 51°54' E 004°24'4 8.8
2018-Feb-15 11:30N 51°54' E 004°17'4 8.7
2018-Feb-15 11:00N 51°57' E 004°11'5 9.6
2018-Feb-15 10:30N 51°59' E 004°04'4 7.3
2018-Feb-15 10:00N 51°60' E 003°58'5 9.2
2018-Feb-15 09:30N 51°60' E 003°51'3 6.4
2018-Feb-15 09:00N 51°59' E 003°46'4 7.8
2018-Feb-15 08:30N 51°58' E 003°40'3 5.9
2018-Feb-15 07:59N 51°55' E 003°37'0 0.1
2018-Feb-15 05:34N 51°55' E 003°38'0 0.0
2018-Feb-15 05:04N 51°55' E 003°38'0 0.0
2018-Feb-15 04:49N 51°55' E 003°38'0 0.0
2018-Feb-15 03:40N 51°55' E 003°38'0 0.0
2018-Feb-15 02:46N 51°55' E 003°38'0 0.0
2018-Feb-15 02:19N 51°55' E 003°38'0 0.0
2018-Feb-15 01:58N 51°55' E 003°38'0 0.0
2018-Feb-15 01:10N 51°55' E 003°38'0 0.0
2018-Feb-14 13:48N 51°55' E 003°37'0 1.6
2018-Feb-14 13:30N 51°55' E 003°38'0 0.8
2018-Feb-14 13:00N 51°56' E 003°38'912.7
2018-Feb-14 12:18N 51°56' E 003°23'2518.1
2018-Feb-14 10:54N 51°48' E 002°45'817.2
2018-Feb-14 10:28N 51°44' E 002°34'817.7
2018-Feb-14 09:59N 51°38' E 002°25'817.5
2018-Feb-14 09:30N 51°31' E 002°17'817.1
2018-Feb-14 09:00N 51°24' E 002°09'816.6
2018-Feb-14 08:30N 51°16' E 002°05'816.1
2018-Feb-14 08:00N 51°11' E 001°56'816.1
2018-Feb-14 07:30N 51°06' E 001°45'815.3
2018-Feb-14 07:00N 51°01' E 001°36'815.7
2018-Feb-14 06:30N 50°56' E 001°27'815.9
2018-Feb-14 06:01N 50°48' E 001°22'1515.5
2018-Feb-14 05:02N 50°36' E 001°09'1516.4
2018-Feb-14 04:07N 50°29' E 000°48'216.9
2018-Feb-14 04:00N 50°28' E 000°45'1416.6
2018-Feb-14 03:08N 50°25' E 000°23'616.3
2018-Feb-14 02:47N 50°23' E 000°14'516.3
2018-Feb-14 02:29N 50°22' E 000°07'816.3
2018-Feb-14 02:00N 50°20' W 000°05'3315.9
2018-Feb-13 23:54N 50°12' W 000°56'716.1
2018-Feb-13 23:30N 50°10' W 001°06'816.5
2018-Feb-13 23:00N 50°08' W 001°18'917.0
2018-Feb-13 22:30N 50°05' W 001°30'917.4
2018-Feb-13 22:01N 50°02' W 001°43'918.0
2018-Feb-13 21:30N 49°59' W 001°56'918.4
2018-Feb-13 21:00N 49°57' W 002°10'918.7
2018-Feb-13 20:31N 49°54' W 002°24'918.5
2018-Feb-13 20:00N 49°52' W 002°38'1018.5
2018-Feb-13 19:29N 49°49' W 002°52'1817.9
2018-Feb-13 18:28N 49°40' W 003°17'7816.8
2018-Feb-13 13:51N 48°60' W 004°59'715.7
2018-Feb-13 13:23N 48°56' W 005°08'615.5
2018-Feb-13 12:59N 48°53' W 005°16'1015.3
2018-Feb-13 12:21N 48°48' W 005°29'814.4
2018-Feb-13 11:49N 48°44' W 005°39'  

Dump ship's entire track history